• Join FlightAware (Why Join?)
  • Login
  • US Flag 
01:55AM EST


 

Airport Tracker/Info


-or-


 

Live Flight TrackerFlight Track Log ✈ TAM3753 ✈ 19-Nov-2013 ✈ SBCF / CNF - SBRJ / SDU

Flight Track Log - Related Links

Times and Time Zones

All times are in EST time to prevent confusion due to time zone crossing. See the TAM3753 flight status page for this flight to view local times or setup timezone preferences in your user account.

Time Position Orientation Groundspeed Altitude Reporting Facility
EST Latitude Longitude Course Direction KTS MPH feet Rate Location/Type
04:02AM -20.1813 -43.8367 167° South  Level Estimated
04:03AM -20.2497 -43.8201 167° South  Level Estimated
04:04AM -20.3181 -43.8036 167° South  Level Estimated
04:05AM -20.3866 -43.7869 167° South  Level Estimated
04:06AM -20.4550 -43.7703 167° South  Level Estimated
04:07AM -20.5234 -43.7537 167° South  Level Estimated
04:08AM -20.5919 -43.7370 167° South  Level Estimated
04:09AM -20.6603 -43.7203 167° South  Level Estimated
04:10AM -20.7287 -43.7037 167° South  Level Estimated
04:11AM -20.7971 -43.6870 167° South  Level Estimated
04:12AM -20.8655 -43.6702 167° South  Level Estimated
04:13AM -20.9340 -43.6535 167° South  Level Estimated
04:14AM -21.0024 -43.6368 167° South  Level Estimated
04:15AM -21.0708 -43.6200 167° South  Level Estimated
04:16AM -21.1392 -43.6032 167° South  Level Estimated
04:17AM -21.2076 -43.5864 167° South  Level Estimated
04:18AM -21.2760 -43.5696 167° South  Level Estimated
04:19AM -21.3444 -43.5528 167° South  Level Estimated
04:20AM -21.4128 -43.5360 167° South  Level Estimated
04:21AM -21.4812 -43.5191 167° South  Level Estimated
04:22AM -21.5496 -43.5023 167° South  Level Estimated
04:23AM -21.6180 -43.4854 167° South  Level Estimated
04:24AM -21.6864 -43.4685 167° South  Level Estimated
04:25AM -21.7548 -43.4515 167° South  Level Estimated
04:26AM -21.8232 -43.4346 167° South  Level Estimated
04:27AM -21.8916 -43.4177 167° South  Level Estimated
04:28AM -21.9600 -43.4007 167° South  Level Estimated
04:29AM -22.0284 -43.3837 167° South  Level Estimated
04:30AM -22.0968 -43.3667 167° South  Level Estimated
04:31AM -22.1652 -43.3497 167° South  Level Estimated
04:32AM -22.2336 -43.3327 167° South  Level Estimated
04:33AM -22.3020 -43.3156 167° South  Level Estimated
04:34AM -22.3703 -43.2985 167° South  Level Estimated
04:35AM -22.4387 -43.2815 167° South  Level Estimated
04:36AM -22.5071 -43.2644 167° South  Level Estimated
04:37AM -22.5755 -43.2472 167° South  Level Estimated
04:38AM -22.6438 -43.2301 167° South  Level Estimated
04:39AM -22.7122 -43.2130 167° South  Level Estimated
04:40AM -22.7806 -43.1958 167° South  Level Estimated
04:41AM -22.8489 -43.1786 167° South  Level Estimated
04:42AM -22.9105 -43.1631 167° South  Level Estimated
04:43AM -22.9105 -43.1631 250° West  Level Estimated
04:44AM -22.9105 -43.1631 250° West  Level Estimated
04:45AM -22.9105 -43.1631 250° West  Level Estimated
04:46AM -22.9105 -43.1631 250° West  Level Estimated
04:47AM -22.9105 -43.1631 250° West  Level Estimated
04:48AM -22.9105 -43.1631 250° West  Level Estimated
04:49AM -22.9105 -43.1631 250° West  Level Estimated
04:50AM -22.9105 -43.1631 250° West  Level Estimated
04:51AM -22.9105 -43.1631 250° West  Level Estimated
04:52AM -22.9105 -43.1631 250° West  Level Estimated
04:53AM -22.9105 -43.1631 250° West  Level Estimated
04:54AM -22.9105 -43.1631 250° West  Level Estimated
04:55AM -22.9105 -43.1631 250° West  Level Estimated
04:56AM -22.9105 -43.1631 250° West  Level Estimated
04:57AM -22.9105 -43.1631 250° West  Level Estimated
04:58AM -22.9105 -43.1631 250° West  Level Estimated